.
WxDataArchive / Data Records for 2015-05-29
2015-05-28 May 2015 2015-05-30

Data Records for Friday, 29 May 2015

Time	Temp	Chill	HIndex	Humid	Dewpt	 Wind 	HiWind	WindDir	Rain 	Barom
-----	----	-----	------	-----	-----	------	------	-------	-----	-----
00:00	67.3	67.3	67.3	78	60.2	0	2	90	0.00	30.104 
00:05	67.1	67.1	67.1	78	60.0	0	2	90	0.00	30.104 
00:10	66.9	66.9	66.9	78	59.8	0	4	90	0.00	30.104 
00:15	66.8	66.8	66.8	79	60.1	0	2	90	0.00	30.096 
00:20	66.4	66.4	66.4	79	59.7	0	1	90	0.00	30.096 
00:25	66.4	66.4	66.4	80	60.0	0	1	90	0.00	30.096 
00:30	66.3	66.3	66.3	80	59.9	0	2	90	0.00	30.097 
00:35	66.1	66.1	66.1	80	59.7	0	1	90	0.00	30.097 
00:40	66.0	66.0	66.0	81	60.0	0	1	90	0.00	30.097 
00:45	65.8	65.8	65.8	81	59.8	0	2	90	0.00	30.094 
00:50	65.6	65.6	65.6	81	59.6	0	1	90	0.00	30.094 
00:55	65.6	65.6	65.6	81	59.6	0	1	90	0.00	30.094 
01:00	65.5	65.5	65.5	82	59.9	0	2	90	0.00	30.087 
01:05	65.3	65.3	65.3	82	59.7	0	2	90	0.00	30.087 
01:10	65.2	65.2	65.2	82	59.6	0	1	90	0.00	30.087 
01:15	65.0	65.0	65.0	82	59.4	0	1	90	0.00	30.081 
01:20	64.8	64.8	64.8	83	59.5	0	1	90	0.00	30.081 
01:25	64.7	64.7	64.7	83	59.4	0	1	90	0.00	30.081 
01:30	64.5	64.5	64.5	83	59.2	0	1	90	0.00	30.087 
01:35	64.5	64.5	64.5	83	59.2	0	0	---	0.00	30.087 
01:40	64.3	64.3	64.3	83	59.0	0	1	90	0.00	30.087 
01:45	64.2	64.2	64.2	84	59.3	0	1	90	0.00	30.084 
01:50	64.2	64.2	64.2	84	59.3	0	1	90	0.00	30.084 
01:55	64.0	64.0	64.0	84	59.1	0	0	---	0.00	30.084 
02:00	63.9	63.9	63.9	84	59.0	0	1	90	0.00	30.086 
02:05	63.9	63.9	63.9	84	59.0	0	0	---	0.00	30.086 
02:10	63.7	63.7	63.7	84	58.8	0	1	90	0.00	30.086 
02:15	63.7	63.7	63.7	84	58.8	0	0	---	0.00	30.081 
02:20	63.5	63.5	63.5	84	58.6	0	0	---	0.00	30.081 
02:25	63.4	63.4	63.4	84	58.5	0	1	90	0.00	30.081 
02:30	63.4	63.4	63.4	85	58.8	0	1	90	0.00	30.083 
02:35	63.4	63.4	63.4	85	58.8	0	1	90	0.00	30.083 
02:40	63.2	63.2	63.2	85	58.6	0	2	90	0.00	30.083 
02:45	63.2	63.2	63.2	85	58.6	0	1	90	0.00	30.082 
02:50	63.2	63.2	63.2	85	58.6	0	1	90	0.00	30.082 
02:55	63.2	63.2	63.2	85	58.6	0	1	90	0.00	30.082 
03:00	63.1	63.1	63.1	85	58.5	0	0	---	0.00	30.084 
03:05	63.1	63.1	63.1	85	58.5	0	0	---	0.00	30.084 
03:10	62.9	62.9	62.9	85	58.3	0	0	---	0.00	30.084 
03:15	62.7	62.7	62.7	85	58.1	0	0	---	0.00	30.083 
03:20	62.7	62.7	62.7	85	58.1	0	0	---	0.00	30.083 
03:25	62.6	62.6	62.6	85	58.0	0	0	---	0.00	30.083 
03:30	62.4	62.4	62.4	85	57.8	0	0	---	0.00	30.083 
03:35	62.3	62.3	62.3	86	58.1	0	0	---	0.00	30.083 
03:40	62.1	62.1	62.1	86	57.9	0	0	---	0.00	30.083 
03:45	62.0	62.0	62.0	86	57.8	0	0	---	0.00	30.082 
03:50	61.8	61.8	61.8	87	57.9	0	0	---	0.00	30.082 
03:55	61.8	61.8	61.8	87	57.9	0	0	---	0.00	30.082 
04:00	61.6	61.6	61.6	87	57.7	0	0	---	0.00	30.081 
04:05	61.6	61.6	61.6	88	58.0	0	0	---	0.00	30.081 
04:10	61.5	61.5	61.5	88	57.9	0	0	---	0.00	30.081 
04:15	61.5	61.5	61.5	88	57.9	0	0	---	0.00	30.080 
04:20	61.3	61.3	61.3	88	57.7	0	0	---	0.00	30.080 
04:25	61.3	61.3	61.3	88	57.7	0	0	---	0.00	30.080 
04:30	61.3	61.3	61.3	89	58.0	0	0	---	0.00	30.079 
04:35	61.2	61.2	61.2	89	57.9	0	0	---	0.00	30.079 
04:40	61.2	61.2	61.2	89	57.9	0	0	---	0.00	30.079 
04:45	61.0	61.0	61.0	89	57.7	0	0	---	0.00	30.078 
04:50	61.0	61.0	61.0	90	58.0	0	0	---	0.00	30.078 
04:55	61.0	61.0	61.0	90	58.0	0	0	---	0.00	30.078 
05:00	60.9	60.9	60.9	90	57.9	0	0	---	0.00	30.080 
05:05	60.9	60.9	60.9	90	57.9	0	0	---	0.00	30.080 
05:10	60.9	60.9	60.9	90	57.9	0	0	---	0.00	30.080 
05:15	60.9	60.9	60.9	90	57.9	0	0	---	0.00	30.081 
05:20	60.9	60.9	60.9	90	57.9	0	0	---	0.00	30.081 
05:25	60.7	60.7	60.7	90	57.7	0	0	---	0.00	30.081 
05:30	60.7	60.7	60.7	90	57.7	0	0	---	0.00	30.077 
05:35	60.5	60.5	60.5	90	57.5	0	0	---	0.00	30.077 
05:40	60.4	60.4	60.4	90	57.4	0	0	---	0.00	30.077 
05:45	60.4	60.4	60.4	90	57.4	0	0	---	0.00	30.073 
05:50	60.2	60.2	60.2	91	57.6	0	0	---	0.00	30.073 
05:55	60.2	60.2	60.2	91	57.6	0	0	---	0.00	30.073 
06:00	60.1	60.1	60.1	91	57.5	0	0	---	0.00	30.078 
06:05	60.2	60.2	60.2	91	57.6	0	0	---	0.00	30.078 
06:10	60.2	60.2	60.2	91	57.6	0	0	---	0.00	30.078 
06:15	60.1	60.1	60.1	91	57.5	0	0	---	0.00	30.080 
06:20	60.1	60.1	60.1	91	57.5	0	0	---	0.00	30.080 
06:25	60.2	60.2	60.2	92	57.9	0	0	---	0.00	30.080 
06:30	60.2	60.2	60.2	92	57.9	0	0	---	0.00	30.082 
06:35	60.2	60.2	60.2	92	57.9	0	0	---	0.00	30.082 
06:40	60.4	60.4	60.4	92	58.1	0	0	---	0.00	30.082 
06:45	60.7	60.7	60.7	92	58.4	0	0	---	0.00	30.081 
06:50	60.9	60.9	60.9	92	58.6	0	0	---	0.00	30.081 
06:55	61.2	61.2	61.2	92	58.9	0	0	---	0.00	30.081 
07:00	61.6	61.6	61.6	92	59.2	0	1	90	0.00	30.073 
07:05	62.0	62.0	62.0	92	59.6	0	1	90	0.00	30.073 
07:10	62.4	62.4	62.4	92	60.0	0	2	90	0.00	30.073 
07:15	62.9	62.9	62.9	92	60.5	0	1	90	0.00	30.069 
07:20	63.4	63.4	63.4	91	60.7	0	1	90	0.00	30.069 
07:25	63.9	63.9	63.9	91	61.2	0	1	90	0.00	30.069 
07:30	64.2	64.2	64.2	91	61.5	0	1	90	0.00	30.065 
07:35	64.5	64.5	64.5	90	61.5	0	0	---	0.00	30.065 
07:40	64.7	64.7	64.7	90	61.7	0	1	90	0.00	30.065 
07:45	65.0	65.0	65.0	89	61.7	0	1	90	0.00	30.067 
07:50	65.2	65.2	65.2	89	61.9	0	1	90	0.00	30.067 
07:55	65.5	65.5	65.5	89	62.2	0	0	---	0.00	30.067 
08:00	65.8	65.8	65.8	88	62.1	0	1	90	0.00	30.066 
08:05	66.1	66.1	66.1	88	62.4	0	0	---	0.00	30.066 
08:10	66.4	66.4	66.4	88	62.7	0	1	90	0.00	30.066 
08:15	66.8	66.8	66.8	88	63.1	0	1	90	0.00	30.066 
08:20	67.1	67.1	67.1	87	63.1	0	0	---	0.00	30.066 
08:25	67.4	67.4	67.4	87	63.4	0	0	---	0.00	30.066 
08:30	67.8	67.8	67.8	86	63.5	0	0	---	0.00	30.063 
08:35	68.1	68.1	68.1	86	63.7	0	1	90	0.00	30.063 
08:40	68.6	68.6	68.6	85	63.9	0	1	90	0.00	30.063 
08:45	69.1	69.1	69.1	84	64.1	0	1	90	0.00	30.063 
08:50	69.6	69.6	69.6	83	64.2	0	1	90	0.00	30.063 
08:55	70.3	70.3	70.3	82	64.5	0	1	90	0.00	30.063 
09:00	70.9	70.9	70.9	81	64.8	0	1	90	0.00	30.060 
09:05	71.3	71.3	71.3	79	64.4	0	2	112	0.00	30.060 
09:10	71.8	71.8	71.8	78	64.6	0	2	112	0.00	30.060 
09:15	72.1	72.1	72.1	78	64.8	0	2	112	0.00	30.062 
09:20	72.3	72.3	72.3	77	64.7	0	3	112	0.00	30.062 
09:25	72.7	72.7	72.7	77	65.1	0	1	112	0.00	30.062 
09:30	72.8	72.8	72.8	76	64.8	0	2	112	0.00	30.063 
09:35	72.8	72.8	72.8	76	64.8	0	1	112	0.00	30.063 
09:40	73.2	73.2	73.2	76	65.2	0	1	112	0.00	30.063 
09:45	73.5	73.5	73.5	75	65.1	0	1	112	0.00	30.068 
09:50	73.9	73.9	73.9	75	65.5	0	3	112	0.00	30.068 
09:55	74.2	74.2	74.2	73	65.0	0	2	112	0.00	30.068 
10:00	74.6	74.6	74.6	73	65.4	0	1	112	0.00	30.067 
10:05	74.9	74.9	74.9	73	65.6	0	1	112	0.00	30.067 
10:10	75.3	75.3	76.8	72	65.6	0	2	112	0.00	30.067 
10:15	75.3	75.3	76.8	72	65.6	0	2	112	0.00	30.070 
10:20	75.6	75.6	77.2	71	65.5	1	4	112	0.00	30.070 
10:25	76.1	76.1	77.6	73	66.8	0	1	112	0.00	30.070 
10:30	76.5	76.5	78.1	72	66.8	0	3	112	0.00	30.074 
10:35	76.8	76.8	78.5	70	66.3	1	4	112	0.00	30.074 
10:40	77.2	77.2	79.0	69	66.2	0	2	158	0.00	30.074 
10:45	77.4	77.4	79.2	69	66.4	0	2	158	0.00	30.076 
10:50	77.7	77.7	79.6	69	66.7	0	2	180	0.00	30.076 
10:55	77.6	77.6	79.5	68	66.2	1	3	180	0.00	30.076 
11:00	77.4	77.4	79.2	67	65.6	0	1	135	0.00	30.073 
11:05	77.4	77.4	79.2	69	66.4	0	1	135	0.00	30.073 
11:10	77.7	77.7	79.6	69	66.7	0	1	135	0.00	30.073 
11:15	78.3	78.3	80.3	67	66.4	0	4	90	0.00	30.075 
11:20	78.5	78.5	80.4	65	65.7	1	3	90	0.00	30.075 
11:25	78.3	78.3	80.2	65	65.5	1	4	90	0.00	30.075 
11:30	78.1	78.1	80.0	65	65.4	1	2	68	0.00	30.073 
11:35	78.1	78.1	80.0	66	65.8	0	2	68	0.00	30.073 
11:40	78.1	78.1	80.0	65	65.4	0	2	68	0.00	30.073 
11:45	78.3	78.3	80.2	66	66.0	0	1	68	0.00	30.067 
11:50	78.8	78.8	80.8	65	66.0	0	4	68	0.00	30.067 
11:55	78.8	78.8	80.8	65	66.0	0	2	90	0.00	30.067 
12:00	79.2	79.2	81.4	66	66.8	0	2	90	0.00	30.060 
12:05	79.8	79.8	81.9	63	66.1	1	4	90	0.00	30.060 
12:10	80.3	80.3	82.3	61	65.6	0	2	90	0.00	30.060 
12:15	80.1	80.1	81.8	59	64.5	0	3	90	0.00	30.061 
12:20	79.9	79.9	82.0	63	66.2	0	1	90	0.00	30.061 
12:25	80.1	80.1	81.8	59	64.5	0	3	90	0.00	30.061 
12:30	79.8	79.8	81.4	58	63.7	1	2	90	0.00	30.061 
12:35	79.6	79.6	81.4	61	64.9	0	3	90	0.00	30.061 
12:40	79.8	79.8	81.6	60	64.7	1	4	90	0.00	30.061 
12:45	79.9	79.9	81.6	59	64.3	2	5	112	0.00	30.059 
12:50	79.8	79.8	81.4	58	63.7	1	3	90	0.00	30.059 
12:55	79.6	79.6	81.4	61	64.9	1	3	270	0.00	30.059 
13:00	79.9	79.9	81.8	61	65.2	1	4	112	0.00	30.055 
13:05	80.3	80.3	82.3	61	65.6	0	2	112	0.00	30.055 
13:10	81.1	81.1	83.3	61	66.4	0	3	112	0.00	30.055 
13:15	81.1	81.1	82.8	57	64.4	0	5	248	0.00	30.047 
13:20	80.9	80.9	82.5	57	64.2	0	2	248	0.00	30.047 
13:25	80.9	80.9	82.7	58	64.7	1	4	248	0.00	30.047 
13:30	81.1	81.1	82.6	56	63.9	1	3	248	0.00	30.043 
13:35	81.1	81.1	82.5	55	63.4	1	3	135	0.00	30.043 
13:40	81.2	81.2	83.0	58	65.0	0	2	90	0.00	30.043 
13:45	81.8	81.8	83.5	56	64.5	1	3	90	0.00	30.031 
13:50	82.4	82.4	84.1	55	64.6	1	4	90	0.00	30.031 
13:55	82.8	82.8	84.6	55	65.0	1	3	68	0.00	30.031 
14:00	83.4	83.4	85.4	55	65.5	0	2	68	0.00	30.029 
14:05	83.4	83.4	85.0	53	64.4	1	4	292	0.00	30.029 
14:10	83.2	83.2	85.1	55	65.3	0	2	292	0.00	30.029 
14:15	83.2	83.2	84.5	52	63.7	0	2	292	0.00	30.027 
14:20	83.0	83.0	84.5	53	64.1	1	3	292	0.00	30.027 
14:25	83.0	83.0	84.7	54	64.6	1	6	90	0.00	30.027 
14:30	82.8	82.8	84.4	54	64.4	0	2	90	0.00	30.015 
14:35	83.2	83.2	84.9	54	64.8	0	2	90	0.00	30.015 
14:40	83.6	83.6	85.5	54	65.2	0	2	90	0.00	30.015 
14:45	84.0	84.0	85.6	52	64.4	1	4	90	0.00	30.011 
14:50	84.1	84.1	85.7	52	64.5	1	3	90	0.00	30.011 
14:55	84.1	84.1	85.7	52	64.5	0	3	90	0.00	30.011 
15:00	83.8	83.8	86.0	55	65.9	0	1	90	0.00	30.001 
15:05	83.8	83.8	85.1	51	63.7	1	3	90	0.00	30.001 
15:10	84.1	84.1	85.3	50	63.4	0	2	315	0.00	30.001 
15:15	84.5	84.5	86.3	52	64.9	0	1	315	0.00	29.994 
15:20	84.7	84.7	85.8	49	63.4	0	2	315	0.00	29.994 
15:25	84.7	84.7	85.8	49	63.4	1	5	270	0.00	29.994 
15:30	84.7	84.7	86.3	51	64.5	0	3	270	0.00	29.983 
15:35	85.1	85.1	86.6	50	64.3	1	3	270	0.00	29.983 
15:40	85.3	85.3	86.1	47	62.8	1	3	270	0.00	29.983 
15:45	85.3	85.3	86.1	47	62.8	1	3	338	0.00	29.980 
15:50	84.7	84.7	85.2	46	61.6	1	3	315	0.00	29.980 
15:55	84.1	84.1	84.8	48	62.3	0	2	0	0.00	29.980 
16:00	84.1	84.1	85.0	49	62.8	1	4	292	0.00	29.974 
16:05	84.1	84.1	85.0	49	62.8	1	2	68	0.00	29.974 
16:10	84.3	84.3	85.5	50	63.6	1	7	90	0.00	29.974 
16:15	84.7	84.7	85.6	48	62.8	1	3	338	0.00	29.966 
16:20	85.3	85.3	86.4	48	63.4	0	2	270	0.00	29.966 
16:25	85.7	85.7	86.2	45	61.9	1	3	292	0.00	29.966 
16:30	85.5	85.5	85.9	45	61.7	0	2	315	0.00	29.964 
16:35	84.5	84.5	85.1	47	62.0	1	4	0	0.00	29.964 
16:40	83.8	83.8	84.5	48	62.0	0	2	90	0.00	29.964 
16:45	83.4	83.4	84.2	49	62.2	0	2	90	0.00	29.957 
16:50	83.2	83.2	84.3	51	63.2	0	1	90	0.00	29.957 
16:55	83.2	83.2	84.3	51	63.2	1	4	90	0.00	29.957 
17:00	83.0	83.0	84.5	53	64.1	0	4	22	0.00	29.958 
17:05	82.6	82.6	84.3	55	64.8	1	4	68	0.00	29.958 
17:10	82.4	82.4	84.2	56	65.1	0	2	270	0.00	29.958 
17:15	83.0	83.0	84.9	55	65.1	1	4	270	0.00	29.953 
17:20	83.2	83.2	84.9	54	64.8	1	4	45	0.00	29.953 
17:25	83.4	83.4	85.2	54	65.0	1	4	45	0.00	29.953 
17:30	83.8	83.8	85.5	53	64.8	1	4	68	0.00	29.951 
17:35	83.8	83.8	85.5	53	64.8	1	6	270	0.00	29.951 
17:40	83.4	83.4	85.2	54	65.0	1	4	292	0.00	29.951 
17:45	83.0	83.0	84.5	53	64.1	1	5	90	0.00	29.952 
17:50	82.6	82.6	84.0	53	63.7	1	3	90	0.00	29.952 
17:55	82.8	82.8	84.4	54	64.4	1	4	90	0.00	29.952 
18:00	83.0	83.0	84.5	53	64.1	1	2	68	0.00	29.949 
18:05	83.2	83.2	84.9	54	64.8	0	2	68	0.00	29.949 
18:10	83.2	83.2	84.5	52	63.7	1	3	45	0.00	29.949 
18:15	83.0	83.0	84.3	52	63.5	1	4	45	0.00	29.944 
18:20	82.6	82.6	84.1	54	64.2	0	2	270	0.00	29.944 
18:25	82.6	82.6	84.1	54	64.2	0	2	292	0.00	29.944 
18:30	82.6	82.6	84.1	54	64.2	1	4	112	0.00	29.938 
18:35	82.6	82.6	84.1	54	64.2	1	4	90	0.00	29.938 
18:40	82.6	82.6	84.1	54	64.2	0	3	90	0.00	29.938 
18:45	82.6	82.6	84.3	55	64.8	0	1	90	0.00	29.934 
18:50	82.6	82.6	84.1	54	64.2	0	1	90	0.00	29.934 
18:55	82.6	82.6	84.1	54	64.2	1	2	90	0.00	29.934 
19:00	82.6	82.6	84.1	54	64.2	0	2	90	0.00	29.931 
19:05	82.6	82.6	84.3	55	64.8	0	3	90	0.00	29.931 
19:10	82.4	82.4	84.1	55	64.6	0	2	112	0.00	29.931 
19:15	82.2	82.2	83.8	55	64.4	1	5	112	0.00	29.928 
19:20	82.2	82.2	84.0	56	64.9	0	2	158	0.00	29.928 
19:25	82.0	82.0	83.6	55	64.2	0	2	135	0.00	29.928 
19:30	81.8	81.8	83.3	55	64.0	0	2	90	0.00	29.925 
19:35	81.4	81.4	83.0	56	64.2	0	2	270	0.00	29.925 
19:40	81.1	81.1	82.6	56	63.9	0	1	270	0.00	29.925 
19:45	80.9	80.9	82.4	56	63.7	0	1	270	0.00	29.929 
19:50	80.7	80.7	82.2	56	63.5	0	2	270	0.00	29.929 
19:55	80.7	80.7	82.3	57	64.0	0	1	270	0.00	29.929 
20:00	80.5	80.5	81.9	56	63.3	0	1	270	0.00	29.930 
20:05	80.5	80.5	81.9	56	63.3	0	1	270	0.00	29.930 
20:10	80.3	80.3	81.7	56	63.1	0	4	90	0.00	29.930 
20:15	80.3	80.3	81.7	56	63.1	0	1	90	0.00	29.929 
20:20	80.3	80.3	81.7	56	63.1	0	2	90	0.00	29.929 
20:25	80.3	80.3	81.7	56	63.1	0	3	315	0.00	29.929 
20:30	80.1	80.1	81.5	56	63.0	0	3	292	0.00	29.926 
20:35	79.9	79.9	81.3	56	62.8	0	1	292	0.00	29.926 
20:40	79.8	79.8	81.3	57	63.2	0	2	338	0.00	29.926 
20:45	79.6	79.6	81.1	57	63.0	0	0	---	0.00	29.929 
20:50	79.4	79.4	80.9	57	62.8	0	1	338	0.00	29.929 
20:55	79.2	79.2	80.7	58	63.1	0	1	338	0.00	29.929 
21:00	79.0	79.0	80.5	58	62.9	0	1	338	0.00	29.927 
21:05	78.8	78.8	80.3	58	62.8	0	2	315	0.00	29.927 
21:10	78.6	78.6	80.1	58	62.6	0	2	315	0.00	29.927 
21:15	78.6	78.6	80.1	58	62.6	0	2	315	0.00	29.928 
21:20	78.5	78.5	80.1	59	63.0	0	2	315	0.00	29.928 
21:25	78.3	78.3	79.9	59	62.8	0	1	315	0.00	29.928 
21:30	78.1	78.1	79.8	60	63.1	0	0	---	0.00	29.934 
21:35	77.9	77.9	79.6	60	62.9	0	0	---	0.00	29.934 
21:40	77.6	77.6	79.3	61	63.1	0	1	315	0.00	29.934 
21:45	77.6	77.6	79.3	61	63.1	0	0	---	0.00	29.937 
21:50	77.4	77.4	79.1	61	62.9	0	1	315	0.00	29.937 
21:55	77.4	77.4	79.2	62	63.3	0	1	315	0.00	29.937 
22:00	77.2	77.2	79.0	62	63.2	0	1	315	0.00	29.943 
22:05	77.0	77.0	78.8	62	63.0	0	1	315	0.00	29.943 
22:10	76.8	76.8	78.6	62	62.8	0	0	---	0.00	29.943 
22:15	76.8	76.8	78.6	62	62.8	0	0	---	0.00	29.949 
22:20	76.7	76.7	78.5	63	63.1	0	1	315	0.00	29.949 
22:25	76.5	76.5	78.3	63	62.9	0	0	---	0.00	29.949 
22:30	76.3	76.3	78.2	63	62.8	0	1	315	0.00	29.956 
22:35	76.1	76.1	78.0	64	63.0	0	1	315	0.00	29.956 
22:40	76.1	76.1	78.0	64	63.0	0	1	315	0.00	29.956 
22:45	76.1	76.1	78.0	64	63.0	0	1	315	0.00	29.959 
22:50	76.1	76.1	78.0	64	63.0	0	1	315	0.00	29.959 
22:55	76.0	76.0	77.9	64	62.9	0	0	---	0.00	29.959 
23:00	75.8	75.8	77.7	65	63.2	0	0	---	0.00	29.960 
23:05	75.8	75.8	77.7	65	63.2	0	1	315	0.00	29.960 
23:10	75.8	75.8	77.7	65	63.2	0	1	315	0.00	29.960 
23:15	75.6	75.6	77.5	65	63.0	0	0	---	0.00	29.958 
23:20	75.4	75.4	77.4	65	62.8	0	1	315	0.00	29.958 
23:25	75.3	75.3	77.3	65	62.7	0	1	315	0.00	29.958 
23:30	75.1	75.1	77.1	66	62.9	0	1	315	0.00	29.951 
23:35	74.9	74.9	74.9	66	62.8	0	1	315	0.00	29.951 
23:40	74.7	74.7	74.7	67	63.0	0	2	315	0.00	29.951 
23:45	74.7	74.7	74.7	67	63.0	0	1	315	0.00	29.944 
23:50	74.6	74.6	74.6	68	63.3	0	0	---	0.00	29.944 
23:55	74.4	74.4	74.4	68	63.1	0	0	---	0.00	29.944 

CoCoRaHS
IN-AL-39
A2 Web Hosting
Creative Commons License
GoDaddy
search engine by freefind advanced

loaded 2018-11-15 18:08:15 • last modified 2010-11-18 10:43:29
Privacy PolicyDisclaimer
• wx.awcolley.com is powered by PmWiki v.2002016 •
• all content (unless otherwise noted) © 2018 A W Colley